createdAt,value
2018-05-29T00:02:02.443Z,88.00
2018-05-29T00:04:29.511Z,88.10
2018-05-29T00:06:56.619Z,88.10
2018-05-29T00:09:23.668Z,88.80
2018-05-29T00:11:50.734Z,88.10
2018-05-29T00:14:17.842Z,88.20
2018-05-29T00:16:45.651Z,88.40
2018-05-29T00:19:12.709Z,88.40
2018-05-29T00:21:39.766Z,88.40
2018-05-29T00:24:06.802Z,88.30
2018-05-29T00:26:33.862Z,88.40
2018-05-29T00:29:00.938Z,88.50
2018-05-29T00:31:27.998Z,88.60
2018-05-29T00:33:55.039Z,88.60
2018-05-29T00:36:22.126Z,88.80
2018-05-29T00:38:49.178Z,88.90
2018-05-29T00:41:16.224Z,89.30
2018-05-29T00:43:43.314Z,89.30
2018-05-29T00:46:10.360Z,89.40
2018-05-29T00:48:37.400Z,89.80
2018-05-29T00:51:04.473Z,90.00
2018-05-29T00:53:31.524Z,90.00
2018-05-29T00:55:58.562Z,90.00
2018-05-29T00:58:25.662Z,90.10
2018-05-29T01:00:53.470Z,90.20
2018-05-29T01:03:20.510Z,90.20
2018-05-29T01:05:47.598Z,90.20
2018-05-29T01:08:14.642Z,90.20
2018-05-29T01:10:41.690Z,90.20
2018-05-29T01:13:08.758Z,90.20
2018-05-29T01:15:35.818Z,90.20
2018-05-29T01:18:02.861Z,90.20
2018-05-29T01:20:29.953Z,90.20
2018-05-29T01:22:57.008Z,90.20
2018-05-29T01:25:24.052Z,90.20
2018-05-29T01:27:51.141Z,90.20
2018-05-29T01:30:18.215Z,90.20
2018-05-29T01:32:45.261Z,90.20
2018-05-29T01:35:12.335Z,90.20
2018-05-29T01:37:40.146Z,90.30
2018-05-29T01:40:07.198Z,90.30
2018-05-29T01:42:34.292Z,90.20
2018-05-29T01:45:01.334Z,90.20
2018-05-29T01:47:30.402Z,90.40
2018-05-29T01:49:57.496Z,90.30
2018-05-29T01:52:24.538Z,90.40
2018-05-29T01:54:52.347Z,90.40
2018-05-29T01:57:19.405Z,90.30
2018-05-29T01:59:46.462Z,90.30
2018-05-29T02:02:13.505Z,90.30
2018-05-29T02:04:40.575Z,90.20
2018-05-29T02:07:07.622Z,90.30
2018-05-29T02:09:34.670Z,90.20
2018-05-29T02:12:01.768Z,90.20
2018-05-29T02:14:29.583Z,90.20
2018-05-29T02:16:56.635Z,90.20
2018-05-29T02:19:23.690Z,90.20
2018-05-29T02:24:23.403Z,90.10
2018-05-29T02:26:50.463Z,90.10
2018-05-29T02:29:17.515Z,90.10
2018-05-29T02:31:44.770Z,90.20
2018-05-29T02:34:11.858Z,90.10
2018-05-29T02:36:38.905Z,90.10
2018-05-29T02:39:05.950Z,90.10
2018-05-29T02:41:33.806Z,90.50
2018-05-29T02:44:00.850Z,90.10
2018-05-29T02:46:28.260Z,90.10
2018-05-29T02:48:55.318Z,90.10
2018-05-29T02:51:22.363Z,90.20
2018-05-29T02:53:49.408Z,90.20
2018-05-29T02:56:16.501Z,90.20
2018-05-29T02:58:43.541Z,90.20
2018-05-29T03:01:10.602Z,90.20
2018-05-29T03:03:37.686Z,90.10
2018-05-29T03:06:04.729Z,90.10
2018-05-29T03:08:31.782Z,90.10
2018-05-29T03:10:59.605Z,90.00
2018-05-29T03:13:26.646Z,90.00
2018-05-29T03:15:53.686Z,90.00
2018-05-29T03:18:20.785Z,90.00
2018-05-29T03:20:47.839Z,90.00
2018-05-29T03:23:15.658Z,90.10
2018-05-29T03:25:42.737Z,90.10
2018-05-29T03:28:09.777Z,90.00
2018-05-29T03:30:36.829Z,90.00
2018-05-29T03:33:03.886Z,90.00
2018-05-29T03:35:30.934Z,89.80
2018-05-29T03:37:57.982Z,89.70
2018-05-29T03:40:25.046Z,89.50
2018-05-29T03:42:52.086Z,89.50
2018-05-29T03:45:19.131Z,89.20
2018-05-29T03:47:46.219Z,89.10
2018-05-29T03:50:14.034Z,88.80
2018-05-29T03:52:41.077Z,88.80
2018-05-29T03:55:08.928Z,88.70
2018-05-29T03:57:35.968Z,88.70
2018-05-29T04:00:03.066Z,88.60
2018-05-29T04:02:30.122Z,88.70
2018-05-29T04:04:57.165Z,88.50
2018-05-29T04:07:24.209Z,88.60
2018-05-29T04:09:51.271Z,88.70
2018-05-29T04:12:18.316Z,88.60
2018-05-29T04:14:45.358Z,88.60
2018-05-29T04:17:12.441Z,88.50
2018-05-29T04:19:39.482Z,88.60
2018-05-29T04:22:07.002Z,88.60
2018-05-29T04:24:34.070Z,88.30
2018-05-29T04:27:01.110Z,88.20
2018-05-29T04:29:28.149Z,88.10
2018-05-29T04:31:55.210Z,87.80
2018-05-29T04:34:22.257Z,87.50
2018-05-29T04:36:49.302Z,87.30
2018-05-29T04:39:16.397Z,86.90
2018-05-29T04:41:43.806Z,86.50
2018-05-29T04:44:10.867Z,86.10
2018-05-29T04:46:37.933Z,85.90
2018-05-29T04:49:04.987Z,85.50
2018-05-29T04:51:32.030Z,85.10
2018-05-29T04:53:59.090Z,84.70
2018-05-29T04:56:26.134Z,84.40
2018-05-29T04:58:53.194Z,83.80
2018-05-29T05:01:20.278Z,83.40
2018-05-29T05:03:48.084Z,82.80
2018-05-29T05:06:15.138Z,82.60
2018-05-29T05:08:42.198Z,82.50
2018-05-29T05:11:09.240Z,82.30
2018-05-29T05:13:36.286Z,82.30
2018-05-29T05:16:03.352Z,82.10
2018-05-29T05:18:30.397Z,82.10
2018-05-29T05:20:57.445Z,82.00
2018-05-29T05:23:24.524Z,81.90
2018-05-29T05:25:51.571Z,81.70
2018-05-29T05:28:18.620Z,80.70
2018-05-29T05:30:45.682Z,80.70
2018-05-29T05:33:13.489Z,79.60
2018-05-29T05:35:40.534Z,79.50
2018-05-29T05:38:07.744Z,79.70
2018-05-29T05:40:34.786Z,79.50
2018-05-29T05:43:01.835Z,79.20
2018-05-29T05:45:28.917Z,78.70
2018-05-29T05:47:56.729Z,77.90
2018-05-29T05:50:23.783Z,77.90
2018-05-29T05:52:50.851Z,77.80
2018-05-29T05:55:17.893Z,77.00
2018-05-29T05:57:44.948Z,76.50
2018-05-29T06:00:12.039Z,76.00
2018-05-29T06:02:39.098Z,76.00
2018-05-29T06:05:06.158Z,76.00
2018-05-29T06:07:33.231Z,75.90
2018-05-29T06:10:00.282Z,75.70
2018-05-29T06:12:27.327Z,75.50
2018-05-29T06:14:54.410Z,75.50
2018-05-29T06:17:21.450Z,75.40
2018-05-29T06:19:48.690Z,74.80
2018-05-29T06:22:15.754Z,73.90
2018-05-29T06:24:42.802Z,73.60
2018-05-29T06:27:09.841Z,73.10
2018-05-29T06:29:36.902Z,71.70
2018-05-29T06:32:03.941Z,70.70
2018-05-29T06:34:31.003Z,70.10
2018-05-29T06:36:58.102Z,69.60
2018-05-29T06:39:25.225Z,69.00
2018-05-29T06:41:52.328Z,67.80
2018-05-29T06:44:19.402Z,67.30
2018-05-29T06:46:46.458Z,66.40
2018-05-29T06:49:13.552Z,66.70
2018-05-29T06:51:40.680Z,66.00
2018-05-29T06:54:07.751Z,65.30
2018-05-29T06:56:34.807Z,65.10
2018-05-29T06:59:01.886Z,65.00
2018-05-29T07:01:28.954Z,65.00
2018-05-29T07:03:56.065Z,65.40
2018-05-29T07:06:23.113Z,64.50
2018-05-29T07:08:50.173Z,63.60
2018-05-29T07:11:17.231Z,63.40
2018-05-29T07:13:44.322Z,62.70
2018-05-29T07:16:11.378Z,62.60
2018-05-29T07:18:39.200Z,62.10
2018-05-29T07:21:06.286Z,62.10
2018-05-29T07:23:33.334Z,61.60
2018-05-29T07:26:00.386Z,62.00
2018-05-29T07:28:27.466Z,61.30
2018-05-29T07:30:54.518Z,60.90
2018-05-29T07:33:21.607Z,60.80
2018-05-29T07:35:48.666Z,60.20
2018-05-29T07:38:15.718Z,59.90
2018-05-29T07:40:42.770Z,60.00
2018-05-29T07:43:09.858Z,58.60
2018-05-29T07:45:36.910Z,58.40
2018-05-29T07:48:04.042Z,58.50
2018-05-29T07:50:31.116Z,58.30
2018-05-29T07:52:58.158Z,57.80
2018-05-29T07:55:25.205Z,57.50
2018-05-29T07:57:53.059Z,57.60
2018-05-29T08:00:20.102Z,57.60
2018-05-29T08:02:47.156Z,57.20
2018-05-29T08:05:14.207Z,56.90
2018-05-29T08:07:41.258Z,56.40
2018-05-29T08:10:09.071Z,56.30
2018-05-29T08:12:36.125Z,56.10
2018-05-29T08:15:03.163Z,53.90
2018-05-29T08:17:30.212Z,53.90
2018-05-29T08:19:57.309Z,54.00
2018-05-29T08:22:24.357Z,52.50
2018-05-29T08:24:51.554Z,51.90
2018-05-29T08:27:18.651Z,51.30
2018-05-29T08:29:45.690Z,50.30
2018-05-29T08:32:12.733Z,50.40
2018-05-29T08:34:39.798Z,50.60
2018-05-29T08:37:06.841Z,51.20
2018-05-29T08:39:33.893Z,49.70
2018-05-29T08:42:00.965Z,50.10
2018-05-29T08:44:28.007Z,50.30
2018-05-29T08:46:55.047Z,49.00
2018-05-29T08:49:22.135Z,49.10
2018-05-29T08:51:49.241Z,49.00
2018-05-29T08:54:16.275Z,48.70
2018-05-29T08:56:43.372Z,49.30
2018-05-29T08:59:11.358Z,49.40
2018-05-29T09:01:38.397Z,48.70
2018-05-29T09:04:05.564Z,49.10
2018-05-29T09:06:32.556Z,47.30
2018-05-29T09:08:59.598Z,46.40
2018-05-29T09:11:26.653Z,46.90
2018-05-29T09:13:53.748Z,47.40
2018-05-29T09:16:20.790Z,47.20
2018-05-29T09:18:47.842Z,47.60
2018-05-29T09:21:14.916Z,46.20
2018-05-29T09:23:42.726Z,44.20
2018-05-29T09:26:09.806Z,44.10
2018-05-29T09:28:36.842Z,44.00
2018-05-29T09:31:03.901Z,44.60
2018-05-29T09:33:30.968Z,44.80
2018-05-29T09:35:58.010Z,43.70
2018-05-29T09:38:25.060Z,44.40
2018-05-29T09:40:52.122Z,44.40
2018-05-29T09:43:19.162Z,42.30
2018-05-29T09:45:46.219Z,43.30
2018-05-29T09:48:13.320Z,43.50
2018-05-29T09:50:40.369Z,43.00
2018-05-29T09:53:07.414Z,43.30
2018-05-29T09:55:34.558Z,43.80
2018-05-29T09:58:01.603Z,42.90
2018-05-29T10:00:34.402Z,42.70
2018-05-29T10:03:01.447Z,42.20
2018-05-29T10:05:28.487Z,42.30
2018-05-29T10:07:55.595Z,41.50
2018-05-29T10:10:22.658Z,40.60
2018-05-29T10:12:49.710Z,39.80
2018-05-29T10:15:18.326Z,39.80
2018-05-29T10:17:46.882Z,41.00
2018-05-29T10:20:14.905Z,40.80
2018-05-29T10:22:43.225Z,41.80
2018-05-29T10:25:12.580Z,40.80
2018-05-29T10:27:42.615Z,40.70
2018-05-29T10:30:11.216Z,40.90
2018-05-29T10:32:40.417Z,40.80
2018-05-29T10:35:10.049Z,41.30
2018-05-29T10:37:37.200Z,41.30
2018-05-29T10:40:05.025Z,40.00
2018-05-29T10:42:32.080Z,39.90
2018-05-29T10:44:59.186Z,40.00
2018-05-29T10:47:27.875Z,40.30
2018-05-29T10:49:54.930Z,40.30
2018-05-29T10:52:22.019Z,40.10
2018-05-29T10:54:49.073Z,39.30
2018-05-29T10:57:16.300Z,38.50
2018-05-29T10:59:43.430Z,38.50
2018-05-29T11:02:11.245Z,36.70
2018-05-29T11:04:38.294Z,36.70
2018-05-29T11:07:05.374Z,37.90
2018-05-29T11:09:32.423Z,37.70
2018-05-29T11:11:59.468Z,37.70
2018-05-29T11:14:26.558Z,38.30
2018-05-29T11:16:53.606Z,39.10
2018-05-29T11:19:20.675Z,38.90
2018-05-29T11:21:47.794Z,38.50
2018-05-29T11:24:15.604Z,38.30
2018-05-29T11:26:43.095Z,38.30
2018-05-29T11:29:10.153Z,39.00
2018-05-29T11:31:37.197Z,38.70
2018-05-29T11:34:04.694Z,37.30
2018-05-29T11:36:32.206Z,37.40
2018-05-29T11:38:59.265Z,37.40
2018-05-29T11:41:26.759Z,37.80
2018-05-29T11:43:53.866Z,37.30
2018-05-29T11:46:20.909Z,37.60
2018-05-29T11:48:47.974Z,37.40
2018-05-29T11:51:15.061Z,37.30
2018-05-29T11:53:42.127Z,37.90
2018-05-29T11:56:09.186Z,38.00
2018-05-29T11:58:36.699Z,37.50
2018-05-29T12:01:03.770Z,36.50
2018-05-29T12:03:31.597Z,36.40
2018-05-29T12:05:59.152Z,36.30
2018-05-29T12:08:26.202Z,35.90
2018-05-29T12:10:53.251Z,35.80
2018-05-29T12:13:20.422Z,36.60
2018-05-29T12:15:48.265Z,36.40
2018-05-29T12:18:16.108Z,36.00
2018-05-29T12:20:43.652Z,36.00
2018-05-29T12:23:11.160Z,36.20
2018-05-29T12:25:38.678Z,35.50
2018-05-29T12:28:06.208Z,34.90
2018-05-29T12:30:33.705Z,34.60
2018-05-29T12:33:00.775Z,33.80
2018-05-29T12:35:28.310Z,33.90
2018-05-29T12:37:55.884Z,32.80
2018-05-29T12:40:23.438Z,34.00
2018-05-29T12:42:51.087Z,34.10
2018-05-29T12:45:18.635Z,34.40
2018-05-29T12:47:46.890Z,33.30
2018-05-29T12:50:14.957Z,33.20
2018-05-29T12:52:42.081Z,32.90
2018-05-29T12:55:09.583Z,33.00
2018-05-29T12:57:37.138Z,33.50
2018-05-29T13:00:04.645Z,33.20
2018-05-29T13:02:32.186Z,32.80
2018-05-29T13:04:59.710Z,33.20
2018-05-29T13:07:27.207Z,32.30
2018-05-29T13:09:54.700Z,32.20
2018-05-29T13:12:22.248Z,32.20
2018-05-29T13:14:49.754Z,32.20
2018-05-29T13:17:17.275Z,32.30
2018-05-29T13:19:44.834Z,31.60
2018-05-29T13:22:12.347Z,31.60
2018-05-29T13:24:39.846Z,31.70
2018-05-29T13:27:07.456Z,31.20
2018-05-29T13:29:35.014Z,30.50
2018-05-29T13:32:02.558Z,30.40
2018-05-29T13:34:30.288Z,30.10
2018-05-29T13:36:58.660Z,30.60
2018-05-29T13:39:26.977Z,30.40
2018-05-29T13:41:54.540Z,30.30
2018-05-29T13:44:22.040Z,30.10
2018-05-29T13:46:49.571Z,30.90
2018-05-29T13:49:17.161Z,30.40
2018-05-29T13:51:46.146Z,30.20
2018-05-29T13:54:13.733Z,30.40
2018-05-29T13:56:41.303Z,31.00
2018-05-29T13:59:08.808Z,30.50
2018-05-29T14:01:36.406Z,30.80
2018-05-29T14:04:05.122Z,30.80
2018-05-29T14:06:32.771Z,30.50
2018-05-29T14:09:00.308Z,30.20
2018-05-29T14:11:27.875Z,30.50
2018-05-29T14:13:55.382Z,30.20
2018-05-29T14:16:22.900Z,30.70
2018-05-29T14:18:50.453Z,31.70
2018-05-29T14:21:18.034Z,32.40
2018-05-29T14:23:45.606Z,31.80
2018-05-29T14:26:13.974Z,32.50
2018-05-29T14:28:41.494Z,32.50
2018-05-29T14:31:09.194Z,32.30
2018-05-29T14:33:36.905Z,31.80
2018-05-29T14:36:04.431Z,31.60
2018-05-29T14:38:32.199Z,32.10
2018-05-29T14:40:59.790Z,32.30
2018-05-29T14:43:27.467Z,32.60
2018-05-29T14:45:54.970Z,31.90
2018-05-29T14:48:22.502Z,32.60
2018-05-29T14:50:50.027Z,33.00
2018-05-29T14:53:17.537Z,33.50
2018-05-29T14:55:45.092Z,33.50
2018-05-29T14:58:12.584Z,34.30
2018-05-29T15:00:40.079Z,33.40
2018-05-29T15:03:07.629Z,34.40
2018-05-29T15:05:35.276Z,34.60
2018-05-29T15:08:02.782Z,34.50
2018-05-29T15:10:30.383Z,34.50
2018-05-29T15:12:57.889Z,33.90
2018-05-29T15:15:25.461Z,33.90
2018-05-29T15:17:53.006Z,33.30
2018-05-29T15:20:20.579Z,33.50
2018-05-29T15:22:48.083Z,33.60
2018-05-29T15:25:15.594Z,32.10
2018-05-29T15:27:43.092Z,32.20
2018-05-29T15:30:10.594Z,32.40
2018-05-29T15:32:38.134Z,31.90
2018-05-29T15:35:05.635Z,31.40
2018-05-29T15:37:33.135Z,31.40
2018-05-29T15:40:00.682Z,30.70
2018-05-29T15:42:28.175Z,30.40
2018-05-29T15:44:55.668Z,30.80
2018-05-29T15:47:23.194Z,29.90
2018-05-29T15:49:50.687Z,29.40
2018-05-29T15:52:19.011Z,29.10
2018-05-29T15:54:47.300Z,28.80
2018-05-29T15:57:16.812Z,28.80
2018-05-29T15:59:44.523Z,28.70
2018-05-29T16:02:13.020Z,28.50
2018-05-29T16:04:40.510Z,28.50
2018-05-29T16:07:08.014Z,28.20
2018-05-29T16:09:41.887Z,28.30
2018-05-29T16:12:09.395Z,28.20
2018-05-29T16:14:36.883Z,28.20
2018-05-29T16:17:04.403Z,28.00
2018-05-29T16:19:32.682Z,27.60
2018-05-29T16:22:00.230Z,27.50
2018-05-29T16:24:27.791Z,27.70
2018-05-29T16:26:55.295Z,27.10
2018-05-29T16:29:22.788Z,27.30
2018-05-29T16:31:50.319Z,27.60
2018-05-29T16:34:17.821Z,27.50
2018-05-29T16:36:45.330Z,27.40
2018-05-29T16:39:12.847Z,27.00
2018-05-29T16:41:40.342Z,27.30
2018-05-29T16:44:07.865Z,27.00
2018-05-29T16:46:35.468Z,26.70
2018-05-29T16:49:03.810Z,26.70
2018-05-29T16:51:31.272Z,26.70
2018-05-29T16:53:59.412Z,27.30
2018-05-29T16:56:26.973Z,27.20
2018-05-29T16:58:54.437Z,27.30
2018-05-29T17:01:21.959Z,27.30
2018-05-29T17:03:49.479Z,27.40
2018-05-29T17:06:16.978Z,27.50
2018-05-29T17:08:45.319Z,27.40
2018-05-29T17:11:13.973Z,27.40
2018-05-29T17:13:41.483Z,27.70
2018-05-29T17:16:09.027Z,27.90
2018-05-29T17:18:36.539Z,28.30
2018-05-29T17:21:04.414Z,28.60
2018-05-29T17:23:31.951Z,28.30
2018-05-29T17:26:00.234Z,28.50
2018-05-29T17:28:27.928Z,28.40
2018-05-29T17:30:57.519Z,28.30
2018-05-29T17:33:25.039Z,28.80
2018-05-29T17:35:52.544Z,29.40
2018-05-29T17:38:20.145Z,30.10
2018-05-29T17:40:48.369Z,32.80
2018-05-29T17:43:16.646Z,34.70
2018-05-29T17:45:44.218Z,34.70
2018-05-29T17:48:11.786Z,36.60
2018-05-29T17:50:40.437Z,39.20
2018-05-29T17:53:07.962Z,39.20
2018-05-29T17:55:35.459Z,40.20
2018-05-29T17:58:02.955Z,41.70
2018-05-29T18:00:30.494Z,42.70
2018-05-29T18:02:57.992Z,43.30
2018-05-29T18:05:25.539Z,43.80
2018-05-29T18:07:53.158Z,44.30
2018-05-29T18:10:20.646Z,44.70
2018-05-29T18:12:48.910Z,45.70
2018-05-29T18:15:16.472Z,45.60
2018-05-29T18:17:44.082Z,45.90
2018-05-29T18:20:11.603Z,46.30
2018-05-29T18:22:40.067Z,46.90
2018-05-29T18:25:10.253Z,46.90
2018-05-29T18:27:37.897Z,47.10
2018-05-29T18:30:05.459Z,47.50
2018-05-29T18:32:33.682Z,47.50
2018-05-29T18:35:01.183Z,47.60
2018-05-29T18:37:29.469Z,48.10
2018-05-29T18:39:57.738Z,48.00
2018-05-29T18:42:25.237Z,47.90
2018-05-29T18:44:52.862Z,47.80
2018-05-29T18:47:20.326Z,48.00
2018-05-29T18:49:48.601Z,48.20
2018-05-29T18:52:16.155Z,48.10
2018-05-29T18:54:48.285Z,48.70
2018-05-29T18:57:15.831Z,48.60
2018-05-29T18:59:43.348Z,48.70
2018-05-29T19:02:10.859Z,49.10
2018-05-29T19:04:38.378Z,49.20
2018-05-29T19:07:06.964Z,49.90
2018-05-29T19:09:34.457Z,49.90
2018-05-29T19:12:01.954Z,50.10
2018-05-29T19:14:29.503Z,50.30
2018-05-29T19:16:57.002Z,50.70
2018-05-29T19:19:25.292Z,50.90
2018-05-29T19:21:53.589Z,51.10
2018-05-29T19:24:21.086Z,51.10
2018-05-29T19:26:48.584Z,51.30
2018-05-29T19:29:16.922Z,51.90
2018-05-29T19:31:44.419Z,51.90
2018-05-29T19:34:12.682Z,52.60
2018-05-29T19:36:40.189Z,52.50
2018-05-29T19:39:07.679Z,52.80
2018-05-29T19:41:35.174Z,53.20
2018-05-29T19:44:03.459Z,53.80
2018-05-29T19:46:30.958Z,53.80
2018-05-29T19:48:59.298Z,54.10
2018-05-29T19:51:26.842Z,54.20
2018-05-29T19:53:54.335Z,54.10
2018-05-29T19:56:21.843Z,54.30
2018-05-29T20:03:30.741Z,54.30
2018-05-29T20:05:59.959Z,54.40
2018-05-29T20:08:29.350Z,55.00
2018-05-29T20:10:57.017Z,54.50
2018-05-29T20:13:25.464Z,54.70
2018-05-29T20:15:52.955Z,54.70
2018-05-29T20:18:20.450Z,55.00
2018-05-29T20:20:47.987Z,55.30
2018-05-29T20:23:15.483Z,55.30
2018-05-29T20:25:42.978Z,55.70
2018-05-29T20:28:10.483Z,55.80
2018-05-29T20:30:38.739Z,56.30
2018-05-29T20:33:06.231Z,56.20
2018-05-29T20:35:34.494Z,56.70
2018-05-29T20:38:01.988Z,56.60
2018-05-29T20:40:29.484Z,56.60
2018-05-29T20:42:57.023Z,56.80
2018-05-29T20:45:24.598Z,57.00
2018-05-29T20:47:52.091Z,57.10
2018-05-29T20:50:19.618Z,57.30
2018-05-29T20:52:47.114Z,57.40
2018-05-29T20:55:14.608Z,57.40
2018-05-29T20:57:42.115Z,57.60
2018-05-29T21:00:09.606Z,57.80
2018-05-29T21:02:37.880Z,58.20
2018-05-29T21:05:06.210Z,58.40
2018-05-29T21:07:33.697Z,58.40
2018-05-29T21:10:01.184Z,58.50
2018-05-29T21:12:28.714Z,58.70
2018-05-29T21:14:56.202Z,59.00
2018-05-29T21:17:24.452Z,59.50
2018-05-29T21:19:51.971Z,59.40
2018-05-29T21:22:19.554Z,59.70
2018-05-29T21:24:46.979Z,59.90
2018-05-29T21:27:15.281Z,60.40
2018-05-29T21:29:42.771Z,60.30
2018-05-29T21:32:10.260Z,60.80
2018-05-29T21:34:38.579Z,61.40
2018-05-29T21:37:06.082Z,61.40
2018-05-29T21:39:33.579Z,61.70
2018-05-29T21:42:02.014Z,61.90
2018-05-29T21:44:29.553Z,61.90
2018-05-29T21:46:58.047Z,62.10
2018-05-29T21:49:25.563Z,61.90
2018-05-29T21:51:53.180Z,61.90
2018-05-29T21:54:20.704Z,61.90
2018-05-29T21:56:48.274Z,62.00
2018-05-29T21:59:15.867Z,62.10
2018-05-29T22:01:43.350Z,62.30
2018-05-29T22:04:10.905Z,62.50
2018-05-29T22:06:38.398Z,62.60
2018-05-29T22:09:05.895Z,62.80
2018-05-29T22:11:33.426Z,62.80
2018-05-29T22:14:00.918Z,62.90
2018-05-29T22:16:28.415Z,63.10
2018-05-29T22:18:55.946Z,63.00
2018-05-29T22:21:23.434Z,63.00
2018-05-29T22:23:50.945Z,63.00
2018-05-29T22:26:18.446Z,62.60
2018-05-29T22:28:45.952Z,62.80
2018-05-29T22:31:13.463Z,62.50
2018-05-29T22:33:41.148Z,62.50
2018-05-29T22:36:08.751Z,62.60
2018-05-29T22:38:36.404Z,62.40
2018-05-29T22:41:03.954Z,62.40
2018-05-29T22:43:31.442Z,62.30
2018-05-29T22:45:58.930Z,62.00
2018-05-29T22:48:26.474Z,62.00
2018-05-29T22:50:54.028Z,62.00
2018-05-29T22:53:21.594Z,62.00
2018-05-29T22:55:49.766Z,62.40
2018-05-29T22:58:17.261Z,62.30
2018-05-29T23:00:44.750Z,62.50
2018-05-29T23:03:13.038Z,62.90
2018-05-29T23:05:40.571Z,62.90
2018-05-29T23:08:08.039Z,62.90
2018-05-29T23:10:35.579Z,63.10
2018-05-29T23:13:03.072Z,63.10
2018-05-29T23:15:30.558Z,63.10
2018-05-29T23:17:58.071Z,63.00
2018-05-29T23:20:25.555Z,63.00
2018-05-29T23:22:53.042Z,63.00
2018-05-29T23:25:20.658Z,62.90
2018-05-29T23:27:48.195Z,62.80
2018-05-29T23:30:16.893Z,62.80
2018-05-29T23:32:44.423Z,63.00
2018-05-29T23:35:11.919Z,64.10
2018-05-29T23:37:39.597Z,63.60
2018-05-29T23:40:07.873Z,64.20
2018-05-29T23:42:35.359Z,64.20
2018-05-29T23:45:02.859Z,64.50
2018-05-29T23:47:30.394Z,64.70
2018-05-29T23:49:57.878Z,64.90
2018-05-29T23:52:25.371Z,65.20
2018-05-29T23:54:52.919Z,65.20
2018-05-29T23:57:20.415Z,65.50
2018-05-29T23:59:47.911Z,65.70
